Site contains unofficial IBTrACS data. Visit the IBTrACS Website to access archived data.

1958 Tropical Cyclone NOT_NAMED (1958043S13139)


IBTrACS version v04r00. Visit IBTrACS website for data access.
Please direct all questions to the IBTrACS Q and A forum

Storm track - Intensity - Wind Radii - Intensity Data - Source Data - All data

Summary Information

Storm ID 1958043S13139
Start Feb 12 05Z
Landfall Feb 14 11Z, Feb 20 06Z
Max Intensity 40 kt (Feb 19 12Z), 994 mb (Feb 19 09Z)
End Feb 24 23Z
ATCF IDs ,SH151958
Track status Best track data.

Storm track plot

Map of storm track

Intensity plots

Map of storm track

Radial wind information

No radial wind information for this storm


Position and Intensity Table

BASIN ISO_TIME_________ NATURE LAT LON WMO PRES BOM PRES DS824 WIND DS824 PRES
degrees north degrees east mb mb kts mb
SP 1958-02-12 05:00:00 NR -13.00 139.00 1002 1002
SP 06:00:00 TS -13.00 138.95 25 1002
SP 09:00:00 TS -13.04 138.76
SP 11:00:00 TS -13.03 138.71
SP 12:00:00 TS -13.02 138.74
SP 15:00:00 TS -13.13 138.61
SP 18:00:00 TS -13.30 138.51
SP 21:00:00 TS -13.51 138.53
SP 23:00:00 TS -13.67 138.62 1000 1000
SP 1958-02-13 00:00:00 TS -13.75 138.68 1000 30 1000
SP 03:00:00 TS -14.00 138.96 1000 30 1000
SP 05:00:00 TS -14.16 139.17 1000 1000 30 1000
SP 06:00:00 TS -14.24 139.27 30 1000
SP 09:00:00 TS -14.47 139.55
SP 11:00:00 TS -14.62 139.72
SP 12:00:00 TS -14.69 139.80
SP 15:00:00 TS -14.91 139.99
SP 18:00:00 TS -15.15 140.16
SP 21:00:00 TS -15.42 140.34
SP 23:00:00 TS -15.62 140.46 998 998
SP 1958-02-14 00:00:00 TS -15.73 140.52 997 35 998
SP 03:00:00 TS -16.07 140.67 996 35 997
SP 05:00:00 TS -16.30 140.77 996 996 35 996
SP 06:00:00 TS -16.43 140.82 35 996
SP 09:00:00 TS -16.82 140.93
SP 11:00:00 TS -17.08 141.01
SP 12:00:00 TS -17.21 141.05
SP 15:00:00 TS -17.54 141.19
SP 18:00:00 TS -17.79 141.40
SP 21:00:00 TS -17.96 141.68
SP 23:00:00 TS -17.94 141.94 1003 1003
SP 1958-02-15 00:00:00 TS -17.85 142.09 1002 25 1003
SP 03:00:00 TS -17.31 142.65 1001 27 1001
SP 05:00:00 TS -16.85 143.17 1000 1000 29 1000
SP 06:00:00 TS -16.63 143.49 1000 30 1000
SP 09:00:00 TS -16.04 144.63 1000 30 1000
SP 11:00:00 TS -15.80 145.38 1001 1001 30 1000
SP 12:00:00 TS -15.77 145.71 1000 30 1001
SP 15:00:00 TS -16.01 146.48 1000 30 1000
SP 18:00:00 TS -16.50 147.06 1000 30 1000
SP 21:00:00 TS -17.01 147.49 1000 30 1000
SP 23:00:00 TS -17.31 147.73 1000 1000 30 1000
SP 1958-02-16 00:00:00 TS -17.41 147.85 999 30 1000
SP 03:00:00 TS -17.61 148.22 999 31 999
SP 06:00:00 TS -17.77 148.52 998 32 999
SP 09:00:00 TS -17.94 148.79 998 33 998
SP 11:00:00 TS -18.07 148.95 998 998 34 998
SP 12:00:00 TS -18.16 149.04 998 35 998
SP 15:00:00 TS -18.52 149.27 998 35 998
SP 18:00:00 TS -18.87 149.50 998 35 998
SP 21:00:00 TS -19.16 149.73 998 35 998
SP 23:00:00 TS -19.27 149.87 998 998 35 998
SP 1958-02-17 00:00:00 TS -19.28 149.94 998 35 998
SP 03:00:00 TS -19.19 150.10 998 35 998
SP 06:00:00 TS -18.99 150.27 998 35 998
SP 09:00:00 TS -18.77 150.48 998 35 998
SP 11:00:00 TS -18.63 150.68 998 998 35 998
SP 12:00:00 TS -18.59 150.84 998 35 998
SP 15:00:00 TS -18.52 151.54 998 33 998
SP 18:00:00 TS -18.44 152.25 999 32 999
SP 21:00:00 TS -18.36 152.73 999 31 999
SP 23:00:00 TS -18.22 152.85 1000 1000 30 999
SP 1958-02-18 00:00:00 TS -18.10 152.81 1000 30 1000
SP 03:00:00 TS -17.48 152.37 1000 30 1000
SP 06:00:00 TS -16.80 151.67 1000 30 1000
SP 09:00:00 TS -16.27 150.95 1000 30 1000
SP 11:00:00 TS -16.04 150.51 1000 1000 30 1000
SP 12:00:00 TS -15.98 150.34 999 30 1000
SP 15:00:00 TS -16.00 149.94 999 31 999
SP 18:00:00 TS -16.20 149.63 998 32 999
SP 21:00:00 TS -16.46 149.37 998 33 998
SP 23:00:00 TS -16.64 149.25 998 998 34 998
SP 1958-02-19 00:00:00 TS -16.72 149.21 997 35 998
SP 03:00:00 TS -16.92 149.22 996 36 997
SP 06:00:00 TS -17.13 149.29 995 37 996
SP 09:00:00 TS -17.37 149.31 994 38 995
SP 11:00:00 TS -17.56 149.28 994 994 39 994
SP 12:00:00 TS -17.67 149.23 994 40 994
SP 15:00:00 TS -18.08 148.98 994 40 994
SP 18:00:00 TS -18.53 148.66 994 40 994
SP 21:00:00 TS -18.95 148.33 994 40 994
SP 23:00:00 TS -19.20 148.13 994 994 40 994
SP 1958-02-20 00:00:00 TS -19.30 148.05 994 40 994
SP 03:00:00 TS -19.57 147.83 994 40 994
SP 06:00:00 TS -19.76 147.65 994 40 994
SP 09:00:00 TS -19.86 147.47 994 40 994
SP 11:00:00 TS -19.87 147.37 995 995 40 994
SP 12:00:00 TS -19.85 147.32 995 40 995
SP 15:00:00 TS -19.71 147.20 995 40 995
SP 18:00:00 TS -19.50 147.16 995 40 995
SP 21:00:00 TS -19.30 147.23 995 40 995
SP 23:00:00 TS -19.20 147.35 995 995 40 995
SP 1958-02-21 00:00:00 TS -19.17 147.44 995 40 995
SP 03:00:00 TS -19.12 147.83 995 38 995
SP 06:00:00 TS -19.12 148.30 996 37 996
SP 09:00:00 TS -19.16 148.77 997 36 997
SP 11:00:00 TS -19.20 149.05 998 998 35 997
SP 12:00:00 TS -19.23 149.16 998 35 998
SP 15:00:00 TS -19.33 149.42 998 35 998
SP 18:00:00 TS -19.45 149.61 998 35 998
SP 21:00:00 TS -19.54 149.78 998 35 998
SP 23:00:00 TS -19.60 149.89 998 998 35 998
SP 1958-02-22 00:00:00 TS -19.64 149.94 998 35 998
SP 03:00:00 TS -19.77 150.05 998 35 998
SP 06:00:00 TS -19.91 150.16 998 35 998
SP 09:00:00 TS -20.01 150.32 998 35 998
SP 11:00:00 TS -20.05 150.44 998 998 35 998
SP 12:00:00 TS -20.06 150.50 998 35 998
SP 15:00:00 TS -20.04 150.67 999 32 999
SP 18:00:00 TS -20.00 150.90 1000 30 1000
SP 21:00:00 TS -19.98 151.21 1001 27 1001
SP 23:00:00 TS -20.00 151.50 1002 1002 25 1001
SP 1958-02-23 00:00:00 TS -20.04 151.69 1002 25 1002
SP 03:00:00 TS -20.28 152.43 1002 23 1002
SP 06:00:00 TS -20.54 153.31 1003 22 1003
SP 09:00:00 TS -20.76 154.20 1003 21 1003
SP 11:00:00 TS -20.85 154.78 1004 1004 20 1003
SP 12:00:00 TS -20.86 155.05 1004 20 1004
SP 15:00:00 TS -20.82 155.81 1005 18 1005
SP 18:00:00 TS -20.68 156.50 1006 17 1006
SP 21:00:00 TS -20.48 157.11 1007 16 1007
SP 23:00:00 TS -20.32 157.47 1008 1008 15 1007
SP 1958-02-24 00:00:00 TS -20.24 157.62 15 1008
SP 03:00:00 TS -19.99 158.00
SP 06:00:00 TS -19.71 158.25
SP 09:00:00 TS -19.41 158.43
SP 11:00:00 TS -19.19 158.51
SP 12:00:00 TS -19.06 158.54
SP 15:00:00 TS -18.65 158.59
SP 18:00:00 TS -18.21 158.60
SP 21:00:00 NR -17.79 158.58
SP 23:00:00 NR -17.50 158.55 1008 1008

Source Information

Agency Information
USA bsh151958.txt
TOKYO
CMA
HKO
NEWDELHI
REUNION
BOM IDCKMSTM0S.csv:Line=2534:unnamed
NADI
WELLINGTON
DS824 aus_area.dat:259:NOT NAMED
TD9636 cons_worldwide_trop_cyclone_18710101-19891231-006:Line=5121
TD9635
NEUMANN
MLC

All available IBTrACS Data

SEASON BASIN SUBBASIN ISO_TIME_________ NATURE LAT LON WMO PRES WMO AGENCY DIST2LAND LANDFALL IFLAG USA AGENCY USA ATCF_ID USA LAT USA LON USA SSHS BOM LAT BOM LON BOM PRES DS824 LAT DS824 LON DS824 STAGE DS824 WIND DS824 PRES TD9636 LAT TD9636 LON TD9636 STAGE STORM SPEED STORM DIR
Year degrees north degrees east mb km km degrees north degrees east 1 degrees north degrees east mb degrees north degrees east kts mb degrees north degrees east kts degrees
1958 SP EA 1958-02-12 05:00:00 NR -13.00 139.00 1002 bom 230 230 ______O_______ -1 -13.00 139.00 1002 3 263
1958 SP EA 06:00:00 TS -13.00 138.95 230 210 ______P__O____ -1 -13.01 138.93 -13.00 139.00 TC 25 1002 3 261
1958 SP EA 09:00:00 TS -13.04 138.76 210 200 ______P__P____ -1 -13.03 138.73 -13.04 138.82 TC 3 263
1958 SP EA 11:00:00 TS -13.03 138.71 200 200 ______P__PO___ -1 -13.06 138.61 -13.08 138.71 TC -12.80 139.10 1 1 0
1958 SP EA 12:00:00 TS -13.02 138.74 200 195 O_____P__PP___ jtwc_sh SH151958 -12.90 139.00 -1 -13.07 138.56 -13.10 138.66 TC -12.88 139.02 1 2 224
1958 SP EA 15:00:00 TS -13.13 138.61 195 181 P_____P__PP___ SH151958 -13.09 138.69 -1 -13.15 138.45 -13.18 138.54 TC -13.10 138.80 1 4 219
1958 SP EA 18:00:00 TS -13.30 138.51 181 176 O_____P__PP___ jtwc_sh SH151958 -13.30 138.50 -1 -13.27 138.41 -13.30 138.50 TC -13.33 138.63 1 4 192
1958 SP EA 21:00:00 TS -13.51 138.53 176 174 P_____P__PP___ SH151958 -13.55 138.52 -1 -13.44 138.48 -13.47 138.54 TC -13.55 138.57 1 5 164
1958 SP EA 23:00:00 TS -13.67 138.62 1000 bom 184 184 P_____O__PO___ SH151958 -13.72 138.63 -1 -13.60 138.60 1000 -13.62 138.63 TC -13.70 138.60 1 6 147
1958 SP EA 1958-02-13 00:00:00 TS -13.75 138.68 191 191 O_____P__OP___ jtwc_sh SH151958 -13.80 138.70 -1 -13.69 138.68 1000 -13.70 138.70 TC 30 1000 -13.77 138.64 1 7 135
1958 SP EA 03:00:00 TS -14.00 138.96 218 216 P_____P__PP___ SH151958 -14.00 138.98 -1 -13.99 138.98 1000 -13.99 138.98 TC 30 1000 -13.99 138.86 1 7 131
1958 SP EA 05:00:00 TS -14.16 139.17 1000 bom 237 237 P_____O__PP___ SH151958 -14.13 139.20 -1 -14.20 139.20 1000 -14.20 139.19 TC 30 1000 -14.14 139.06 1 8 128
1958 SP EA 06:00:00 TS -14.24 139.27 239 215 O_____P__OP___ jtwc_sh SH151958 -14.20 139.30 -1 -14.28 139.29 -14.30 139.30 TC 30 1000 -14.21 139.17 1 7 130
1958 SP EA 09:00:00 TS -14.47 139.55 204 194 P_____P__PP___ SH151958 -14.44 139.57 -1 -14.49 139.56 -14.53 139.57 TC -14.44 139.50 1 7 131
1958 SP EA 11:00:00 TS -14.62 139.72 194 184 P_____P__PO___ SH151958 -14.61 139.73 -1 -14.61 139.72 -14.65 139.74 TC -14.60 139.70 1 7 134
1958 SP EA 12:00:00 TS -14.69 139.80 184 167 O_____P__PP___ jtwc_sh SH151958 -14.70 139.80 -1 -14.67 139.80 -14.71 139.82 TC -14.68 139.77 1 6 139
1958 SP EA 15:00:00 TS -14.91 139.99 167 146 P_____P__PP___ SH151958 -14.94 139.96 -1 -14.85 140.01 -14.89 140.04 TC -14.94 139.97 1 6 142
1958 SP EA 18:00:00 TS -15.15 140.16 146 129 O_____P__PP___ jtwc_sh SH151958 -15.20 140.10 -1 -15.05 140.21 -15.08 140.25 TC -15.21 140.14 1 6 146
1958 SP EA 21:00:00 TS -15.42 140.34 129 102 P_____P__PP___ SH151958 -15.49 140.30 -1 -15.29 140.39 -15.30 140.43 TC -15.50 140.30 1 7 148
1958 SP EA 23:00:00 TS -15.62 140.46 998 bom 102 98 P_____O__PO___ SH151958 -15.70 140.44 -1 -15.50 140.50 998 -15.49 140.55 TC -15.70 140.40 1 7 152
1958 SP EA 1958-02-14 00:00:00 TS -15.73 140.52 98 72 O_____P__OP___ jtwc_sh SH151958 -15.80 140.50 -1 -15.63 140.55 997 -15.60 140.60 TC 35 998 -15.81 140.45 1 7 156
1958 SP EA 03:00:00 TS -16.07 140.67 72 54 P_____P__PP___ SH151958 -16.09 140.67 -1 -16.03 140.70 996 -16.00 140.75 TC 35 997 -16.14 140.59 1 8 157
1958 SP EA 05:00:00 TS -16.30 140.77 996 bom 54 53 P_____O__PP___ SH151958 -16.29 140.76 -1 -16.30 140.80 996 -16.27 140.85 TC 35 996 -16.36 140.69 1 8 159
1958 SP EA 06:00:00 TS -16.43 140.82 53 24 O_____P__OP___ jtwc_sh SH151958 -16.40 140.80 -1 -16.45 140.85 -16.40 140.90 TC 35 996 -16.48 140.73 1 8 164
1958 SP EA 09:00:00 TS -16.82 140.93 24 0 P_____P__PP___ SH151958 -16.76 140.89 -1 -16.94 140.99 -16.84 141.00 TC -16.80 140.89 1 8 164
1958 SP EA 11:00:00 TS -17.08 141.01 0 0 P_____P__PO___ SH151958 -16.99 140.96 -1 -17.27 141.08 -17.14 141.05 TC -17.00 141.00 1 8 164
1958 SP EA 12:00:00 TS -17.21 141.05 0 0 O_____P__PP___ jtwc_sh SH151958 -17.10 141.00 -1 -17.42 141.13 -17.28 141.08 TC -17.12 141.04 1 8 159
1958 SP EA 15:00:00 TS -17.54 141.19 0 0 P_____P__PP___ SH151958 -17.38 141.16 -1 -17.82 141.30 -17.65 141.19 TC -17.49 141.15 1 7 150
1958 SP EA 18:00:00 TS -17.79 141.40 0 0 O_____P__PP___ jtwc_sh SH151958 -17.60 141.40 -1 -18.08 141.52 -17.90 141.37 TC -17.79 141.33 1 6 132
1958 SP EA 21:00:00 TS -17.96 141.68 0 0 P_____P__PP___ SH151958 -17.89 141.67 -1 -18.12 141.78 -17.97 141.66 TC -17.93 141.61 1 6 106
1958 SP EA 23:00:00 TS -17.94 141.94 1003 bom 0 0 P_____O__PO___ SH151958 -17.95 141.93 -1 -18.00 142.00 1003 -17.89 141.93 TC -17.90 141.90 1 8 75
1958 SP EA 1958-02-15 00:00:00 TS -17.85 142.09 0 0 O_____P__OP___ jtwc_sh SH151958 -17.90 142.10 -1 -17.89 142.03 1002 -17.80 142.10 TC 25 1003 -17.78 142.09 1 14 47
1958 SP EA 03:00:00 TS -17.31 142.65 0 0 P_____P__PP___ SH151958 -17.27 142.78 -1 -17.41 142.30 1001 -17.36 142.58 TC 27 1001 -17.24 142.79 1 17 46
1958 SP EA 05:00:00 TS -16.85 143.17 1000 bom 0 0 P_____O__PP___ SH151958 -16.73 143.32 -1 -17.00 142.80 1000 -16.99 143.07 TC 29 1000 -16.80 143.33 1 21 50
1958 SP EA 06:00:00 TS -16.63 143.49 0 0 O_____P__OP___ jtwc_sh SH151958 -16.50 143.60 -1 -16.76 143.26 1000 -16.80 143.40 TC 30 1000 -16.58 143.61 1 24 60
1958 SP EA 09:00:00 TS -16.04 144.63 0 0 P_____P__PP___ SH151958 -16.03 144.40 -1 -15.98 145.05 1000 -16.17 144.83 TC 30 1000 -16.02 144.45 1 24 66
1958 SP EA 11:00:00 TS -15.80 145.38 1001 bom 10 10 P_____O__PO___ SH151958 -15.89 144.94 -1 -15.60 146.20 1001 -15.82 145.85 TC 30 1000 -15.80 145.00 1 22 75
1958 SP EA 12:00:00 TS -15.77 145.71 33 33 O_____P__OP___ jtwc_sh SH151958 -15.90 145.20 -1 -15.54 146.57 1000 -15.70 146.30 TC 30 1001 -15.82 145.25 1 16 101
1958 SP EA 15:00:00 TS -16.01 146.48 107 107 P_____P__PP___ SH151958 -16.25 145.99 -1 -15.69 147.30 1000 -15.75 147.12 TC 30 1000 -16.09 146.01 1 15 119
1958 SP EA 18:00:00 TS -16.50 147.06 139 135 O_____P__PP___ jtwc_sh SH151958 -16.80 146.70 -1 -16.19 147.63 1000 -16.16 147.55 TC 30 1000 -16.56 146.71 1 14 136
1958 SP EA 21:00:00 TS -17.01 147.49 155 152 P_____P__PP___ SH151958 -17.19 147.31 -1 -16.82 147.74 1000 -16.74 147.76 TC 30 1000 -17.09 147.34 1 12 142
1958 SP EA 23:00:00 TS -17.31 147.73 1000 bom 170 170 P_____O__PO___ SH151958 -17.41 147.65 -1 -17.20 147.80 1000 -17.13 147.85 TC 30 1000 -17.40 147.70 1 11 140
1958 SP EA 1958-02-16 00:00:00 TS -17.41 147.85 191 190 O_____P__OP___ jtwc_sh SH151958 -17.50 147.80 -1 -17.29 147.92 999 -17.30 147.90 TC 30 1000 -17.48 147.85 1 8 123
1958 SP EA 03:00:00 TS -17.61 148.22 218 212 P_____P__PP___ SH151958 -17.67 148.20 -1 -17.50 148.24 999 -17.55 148.24 TC 31 999 -17.68 148.24 1 7 119
1958 SP EA 06:00:00 TS -17.77 148.52 213 213 O_____P__PP___ jtwc_sh SH151958 -17.80 148.50 -1 -17.68 148.54 998 -17.74 148.55 TC 32 999 -17.83 148.53 1 6 121
1958 SP EA 09:00:00 TS -17.94 148.79 223 214 P_____P__PP___ SH151958 -17.97 148.77 -1 -17.86 148.82 998 -17.91 148.84 TC 33 998 -17.98 148.76 1 6 127
1958 SP EA 11:00:00 TS -18.07 148.95 998 bom 222 222 P_____O__PO___ SH151958 -18.11 148.93 -1 -18.00 149.00 998 -18.03 149.02 TC 34 998 -18.10 148.90 1 7 135
1958 SP EA 12:00:00 TS -18.16 149.04 214 192 O_____P__OP___ jtwc_sh SH151958 -18.20 149.00 -1 -18.12 149.10 998 -18.10 149.10 TC 35 998 -18.21 148.98 1 8 146
1958 SP EA 15:00:00 TS -18.52 149.27 197 172 P_____P__PP___ SH151958 -18.55 149.20 -1 -18.51 149.40 998 -18.43 149.37 TC 35 998 -18.56 149.20 1 8 148
1958 SP EA 18:00:00 TS -18.87 149.50 172 158 O_____P__PP___ jtwc_sh SH151958 -18.90 149.40 -1 -18.89 149.68 998 -18.77 149.62 TC 35 998 -18.91 149.41 1 8 146
1958 SP EA 21:00:00 TS -19.16 149.73 154 154 P_____P__PP___ SH151958 -19.17 149.63 -1 -19.19 149.90 998 -19.05 149.83 TC 35 998 -19.19 149.63 1 6 138
1958 SP EA 23:00:00 TS -19.27 149.87 998 bom 160 160 P_____O__PO___ SH151958 -19.28 149.81 -1 -19.30 150.00 998 -19.17 149.95 TC 35 998 -19.30 149.80 1 5 123
1958 SP EA 1958-02-17 00:00:00 TS -19.28 149.94 160 160 O_____P__OP___ jtwc_sh SH151958 -19.30 149.90 -1 -19.31 150.00 998 -19.20 150.00 TC 35 998 -19.30 149.89 1 3 71
1958 SP EA 03:00:00 TS -19.19 150.10 183 183 P_____P__PP___ SH151958 -19.20 150.19 -1 -19.21 149.92 998 -19.14 150.03 TC 35 998 -19.21 150.18 1 4 47
1958 SP EA 06:00:00 TS -18.99 150.27 214 214 O_____P__PP___ jtwc_sh SH151958 -19.00 150.50 -1 -18.99 149.83 998 -18.96 150.04 TC 35 998 -19.02 150.49 1 6 40
1958 SP EA 09:00:00 TS -18.77 150.48 244 244 P_____P__PP___ SH151958 -18.83 150.80 -1 -18.70 149.85 998 -18.69 150.10 TC 35 998 -18.81 150.85 1 6 47
1958 SP EA 11:00:00 TS -18.63 150.68 998 bom 275 275 P_____O__PO___ SH151958 -18.73 151.05 -1 -18.50 150.00 998 -18.50 150.21 TC 35 998 -18.70 151.10 1 8 62
1958 SP EA 12:00:00 TS -18.59 150.84 283 283 O_____P__OP___ jtwc_sh SH151958 -18.70 151.20 -1 -18.43 150.23 998 -18.40 150.30 TC 35 998 -18.71 151.28 1 12 82
1958 SP EA 15:00:00 TS -18.52 151.54 347 347 P_____P__PP___ SH151958 -18.69 151.88 -1 -18.23 151.12 998 -18.19 150.98 TC 33 998 -18.79 151.86 1 13 84
1958 SP EA 18:00:00 TS -18.44 152.25 415 415 O_____P__PP___ jtwc_sh SH151958 -18.70 152.50 -1 -17.99 152.07 999 -17.96 151.76 TC 32 999 -18.87 152.41 1 11 82
1958 SP EA 21:00:00 TS -18.36 152.73 461 461 P_____P__PP___ SH151958 -18.77 152.82 -1 -17.71 152.79 999 -17.70 152.41 TC 31 999 -18.83 152.80 1 7 69
1958 SP EA 23:00:00 TS -18.22 152.85 1000 bom 490 481 P_____O__PO___ SH151958 -18.70 152.85 -1 -17.50 153.00 1000 -17.50 152.66 TC 30 999 -18.70 152.90 1 5 17
1958 SP EA 1958-02-18 00:00:00 TS -18.10 152.81 486 483 O_____P__OP___ jtwc_sh SH151958 -18.60 152.80 -1 -17.35 152.89 1000 -17.40 152.70 TC 30 1000 -18.53 152.86 1 13 328
1958 SP EA 03:00:00 TS -17.48 152.37 491 490 P_____P__PP___ SH151958 -17.86 152.45 -1 -16.86 152.20 1000 -16.97 152.21 TC 30 1000 -17.87 152.54 1 17 320
1958 SP EA 06:00:00 TS -16.80 151.67 496 490 O_____P__PP___ jtwc_sh SH151958 -17.00 151.90 -1 -16.36 151.19 1000 -16.53 151.35 TC 30 1000 -17.10 152.01 1 18 312
1958 SP EA 09:00:00 TS -16.27 150.95 502 490 P_____P__PP___ SH151958 -16.42 151.40 -1 -15.96 150.16 1000 -16.14 150.40 TC 30 1000 -16.42 151.40 1 16 304
1958 SP EA 11:00:00 TS -16.04 150.51 1000 bom 494 484 P_____O__PO___ SH151958 -16.17 151.06 -1 -15.80 149.60 1000 -15.96 149.83 TC 30 1000 -16.10 151.00 1 13 296
1958 SP EA 12:00:00 TS -15.98 150.34 474 444 O_____P__OP___ jtwc_sh SH151958 -16.10 150.90 -1 -15.79 149.46 999 -15.90 149.60 TC 30 1000 -16.04 150.83 1 8 274
1958 SP EA 15:00:00 TS -16.00 149.94 434 396 P_____P__PP___ SH151958 -16.09 150.44 -1 -15.89 149.19 999 -15.92 149.28 TC 31 999 -16.01 150.33 1 7 252
1958 SP EA 18:00:00 TS -16.20 149.63 396 368 O_____P__PP___ jtwc_sh SH151958 -16.30 150.00 -1 -16.13 149.11 998 -16.09 149.15 TC 32 999 -16.19 149.87 1 7 230
1958 SP EA 21:00:00 TS -16.46 149.37 365 351 P_____P__PP___ SH151958 -16.52 149.53 -1 -16.42 149.15 998 -16.34 149.15 TC 33 998 -16.48 149.49 1 7 219
1958 SP EA 23:00:00 TS -16.64 149.25 998 bom 351 338 P_____O__PO___ SH151958 -16.70 149.29 -1 -16.60 149.20 998 -16.52 149.18 TC 34 998 -16.70 149.30 1 6 209
1958 SP EA 1958-02-19 00:00:00 TS -16.72 149.21 338 334 O_____P__OP___ jtwc_sh SH151958 -16.80 149.20 -1 -16.62 149.22 997 -16.60 149.20 TC 35 998 -16.78 149.25 1 4 188
1958 SP EA 03:00:00 TS -16.92 149.22 334 326 P_____P__PP___ SH151958 -17.09 149.15 -1 -16.67 149.34 996 -16.70 149.27 TC 36 997 -17.05 149.19 1 4 171
1958 SP EA 06:00:00 TS -17.13 149.29 326 300 O_____P__PP___ jtwc_sh SH151958 -17.40 149.20 -1 -16.72 149.47 995 -16.79 149.37 TC 37 996 -17.35 149.21 1 5 169
1958 SP EA 09:00:00 TS -17.37 149.31 300 292 P_____P__PP___ SH151958 -17.69 149.19 -1 -16.84 149.53 994 -16.95 149.44 TC 38 995 -17.68 149.23 1 5 183
1958 SP EA 11:00:00 TS -17.56 149.28 994 bom 284 268 P_____O__PO___ SH151958 -17.89 149.14 -1 -17.00 149.50 994 -17.10 149.43 TC 39 994 -17.90 149.20 1 6 195
1958 SP EA 12:00:00 TS -17.67 149.23 268 222 O_____P__OP___ jtwc_sh SH151958 -18.00 149.10 -1 -17.14 149.42 994 -17.20 149.40 TC 40 994 -18.01 149.15 1 9 209
1958 SP EA 15:00:00 TS -18.08 148.98 222 168 P_____P__PP___ SH151958 -18.35 148.88 -1 -17.67 149.09 994 -17.68 149.13 TC 40 994 -18.36 148.93 1 10 213
1958 SP EA 18:00:00 TS -18.53 148.66 168 115 O_____P__PP___ jtwc_sh SH151958 -18.70 148.60 -1 -18.28 148.67 994 -18.25 148.76 TC 40 994 -18.71 148.67 1 11 215
1958 SP EA 21:00:00 TS -18.95 148.33 100 71 P_____P__PP___ SH151958 -19.02 148.34 -1 -18.87 148.24 994 -18.82 148.35 TC 40 994 -19.02 148.38 1 10 217
1958 SP EA 23:00:00 TS -19.20 148.13 994 bom 71 64 P_____O__PO___ SH151958 -19.21 148.18 -1 -19.20 148.00 994 -19.16 148.11 TC 40 994 -19.20 148.20 1 9 218
1958 SP EA 1958-02-20 00:00:00 TS -19.30 148.05 57 22 O_____P__OP___ jtwc_sh SH151958 -19.30 148.10 -1 -19.33 147.92 994 -19.30 148.00 TC 40 994 -19.29 148.11 1 7 217
1958 SP EA 03:00:00 TS -19.57 147.83 22 10 P_____P__PP___ SH151958 -19.54 147.90 -1 -19.66 147.73 994 -19.61 147.78 TC 40 994 -19.53 147.85 1 6 220
1958 SP EA 06:00:00 TS -19.76 147.65 0 0 O_____P__PP___ jtwc_sh SH151958 -19.70 147.70 -1 -19.88 147.60 994 -19.80 147.63 TC 40 994 -19.70 147.60 1 4 230
1958 SP EA 09:00:00 TS -19.86 147.47 0 0 P_____P__PP___ SH151958 -19.81 147.44 -1 -19.99 147.53 994 -19.90 147.54 TC 40 994 -19.79 147.40 1 3 247
1958 SP EA 11:00:00 TS -19.87 147.37 995 bom 0 0 P_____O__PO___ SH151958 -19.82 147.27 -1 -20.00 147.50 995 -19.91 147.51 TC 40 994 -19.80 147.30 1 3 273
1958 SP EA 12:00:00 TS -19.85 147.32 0 0 O_____P__OP___ jtwc_sh SH151958 -19.80 147.20 -1 -19.98 147.46 995 -19.90 147.50 TC 40 995 -19.78 147.24 1 3 315
1958 SP EA 15:00:00 TS -19.71 147.20 0 0 P_____P__PP___ SH151958 -19.63 147.04 -1 -19.84 147.35 995 -19.81 147.43 TC 40 995 -19.63 147.11 1 4 337
1958 SP EA 18:00:00 TS -19.50 147.16 0 0 O_____P__PP___ jtwc_sh SH151958 -19.40 147.00 -1 -19.63 147.31 995 -19.64 147.43 TC 40 995 -19.42 147.05 1 4 6
1958 SP EA 21:00:00 TS -19.30 147.23 20 15 P_____P__PP___ SH151958 -19.23 147.08 -1 -19.41 147.37 995 -19.45 147.51 TC 40 995 -19.21 147.10 1 4 31
1958 SP EA 23:00:00 TS -19.20 147.35 995 bom 24 22 P_____O__PO___ SH151958 -19.14 147.21 -1 -19.30 147.50 995 -19.34 147.62 TC 40 995 -19.10 147.20 1 5 57
1958 SP EA 1958-02-21 00:00:00 TS -19.17 147.44 22 22 O_____P__OP___ jtwc_sh SH151958 -19.10 147.30 -1 -19.28 147.62 995 -19.30 147.70 TC 40 995 -19.07 147.28 1 7 80
1958 SP EA 03:00:00 TS -19.12 147.83 53 53 P_____P__PP___ SH151958 -19.02 147.66 -1 -19.27 148.09 995 -19.28 148.09 TC 38 995 -19.01 147.63 1 8 87
1958 SP EA 06:00:00 TS -19.12 148.30 94 94 O_____P__PP___ jtwc_sh SH151958 -19.00 148.10 -1 -19.31 148.65 996 -19.30 148.58 TC 37 996 -19.01 148.07 1 9 92
1958 SP EA 09:00:00 TS -19.16 148.77 103 103 P_____P__PP___ SH151958 -19.01 148.52 -1 -19.36 149.20 997 -19.35 149.08 TC 36 997 -19.05 148.52 1 9 96
1958 SP EA 11:00:00 TS -19.20 149.05 998 bom 115 115 P_____O__PO___ SH151958 -19.06 148.78 -1 -19.40 149.50 998 -19.38 149.37 TC 35 997 -19.10 148.80 1 8 101
1958 SP EA 12:00:00 TS -19.23 149.16 128 118 O_____P__OP___ jtwc_sh SH151958 -19.10 148.90 -1 -19.40 149.60 998 -19.40 149.50 TC 35 998 -19.13 148.90 1 6 111
1958 SP EA 15:00:00 TS -19.33 149.42 128 124 P_____P__PP___ SH151958 -19.29 149.17 -1 -19.41 149.81 998 -19.41 149.73 TC 35 998 -19.26 149.19 1 5 118
1958 SP EA 18:00:00 TS -19.45 149.61 122 122 O_____P__PP___ jtwc_sh SH151958 -19.50 149.40 -1 -19.43 149.93 998 -19.42 149.88 TC 35 998 -19.43 149.43 1 4 121
1958 SP EA 21:00:00 TS -19.54 149.78 137 130 P_____P__PP___ SH151958 -19.61 149.66 -1 -19.46 149.98 998 -19.45 149.96 TC 35 998 -19.60 149.65 1 4 119
1958 SP EA 23:00:00 TS -19.60 149.89 998 bom 139 139 P_____O__PO___ SH151958 -19.67 149.82 -1 -19.50 150.00 998 -19.48 149.99 TC 35 998 -19.70 149.80 1 3 123
1958 SP EA 1958-02-22 00:00:00 TS -19.64 149.94 139 137 O_____P__OP___ jtwc_sh SH151958 -19.70 149.90 -1 -19.53 150.00 998 -19.50 150.00 TC 35 998 -19.75 149.88 1 3 137
1958 SP EA 03:00:00 TS -19.77 150.05 146 142 P_____P__PP___ SH151958 -19.86 150.10 -1 -19.66 149.96 998 -19.61 149.99 TC 35 998 -19.88 150.11 1 3 142
1958 SP EA 06:00:00 TS -19.91 150.16 151 146 O_____P__PP___ jtwc_sh SH151958 -20.00 150.30 -1 -19.80 149.91 998 -19.75 149.96 TC 35 998 -19.99 150.34 1 3 134
1958 SP EA 09:00:00 TS -20.01 150.32 156 156 P_____P__PP___ SH151958 -20.08 150.56 -1 -19.93 149.93 998 -19.89 149.98 TC 35 998 -20.07 150.56 1 4 119
1958 SP EA 11:00:00 TS -20.05 150.44 998 bom 162 162 P_____O__PO___ SH151958 -20.10 150.73 -1 -20.00 150.00 998 -19.97 150.04 TC 35 998 -20.10 150.70 1 4 106
1958 SP EA 12:00:00 TS -20.06 150.50 172 172 O_____P__OP___ jtwc_sh SH151958 -20.10 150.80 -1 -20.00 150.05 998 -20.00 150.10 TC 35 998 -20.10 150.74 1 3 85
1958 SP EA 15:00:00 TS -20.04 150.67 195 195 P_____P__PP___ SH151958 -20.06 150.95 -1 -19.98 150.27 999 -20.02 150.34 TC 32 999 -20.06 150.85 1 4 80
1958 SP EA 18:00:00 TS -20.00 150.90 215 215 O_____P__PP___ jtwc_sh SH151958 -20.00 151.10 -1 -19.95 150.62 1000 -20.03 150.70 TC 30 1000 -20.00 150.98 1 5 83
1958 SP EA 21:00:00 TS -19.98 151.21 241 241 P_____P__PP___ SH151958 -19.95 151.25 -1 -19.95 151.10 1001 -20.04 151.19 TC 27 1001 -19.98 151.23 1 7 91
1958 SP EA 23:00:00 TS -20.00 151.50 1002 bom 269 269 P_____O__PO___ SH151958 -19.97 151.45 -1 -20.00 151.50 1002 -20.07 151.58 TC 25 1001 -20.00 151.50 1 9 99
1958 SP EA 1958-02-23 00:00:00 TS -20.04 151.69 287 277 O_____P__OP___ jtwc_sh SH151958 -20.00 151.60 -1 -20.07 151.73 1002 -20.10 151.80 TC 25 1002 -20.05 151.69 1 14 107
1958 SP EA 03:00:00 TS -20.28 152.43 293 293 P_____P__PP___ SH151958 -20.23 152.31 -1 -20.34 152.55 1002 -20.31 152.57 TC 23 1002 -20.27 152.40 1 16 108
1958 SP EA 06:00:00 TS -20.54 153.31 341 341 O_____P__PP___ jtwc_sh SH151958 -20.50 153.20 -1 -20.65 153.48 1003 -20.56 153.44 TC 22 1003 -20.51 153.24 1 17 106
1958 SP EA 09:00:00 TS -20.76 154.20 399 399 P_____P__PP___ SH151958 -20.70 154.06 -1 -20.90 154.41 1003 -20.77 154.35 TC 21 1003 -20.72 154.13 1 17 103
1958 SP EA 11:00:00 TS -20.85 154.78 1004 bom 454 450 P_____O__PO___ SH151958 -20.78 154.63 -1 -21.00 155.00 1004 -20.87 154.93 TC 20 1003 -20.80 154.70 1 16 98
1958 SP EA 12:00:00 TS -20.86 155.05 469 469 O_____P__OP___ jtwc_sh SH151958 -20.80 154.90 -1 -21.01 155.27 1004 -20.90 155.20 TC 20 1004 -20.81 154.96 1 15 89
1958 SP EA 15:00:00 TS -20.82 155.81 515 515 P_____P__PP___ SH151958 -20.75 155.69 -1 -20.96 156.02 1005 -20.89 155.93 TC 18 1005 -20.77 155.73 1 14 82
1958 SP EA 18:00:00 TS -20.68 156.50 563 563 O_____P__PP___ jtwc_sh SH151958 -20.60 156.40 -1 -20.81 156.69 1006 -20.76 156.55 TC 17 1006 -20.64 156.44 1 13 74
1958 SP EA 21:00:00 TS -20.48 157.11 618 618 P_____P__PP___ SH151958 -20.42 157.07 -1 -20.58 157.27 1007 -20.55 157.09 TC 16 1007 -20.45 157.06 1 12 68
1958 SP EA 23:00:00 TS -20.32 157.47 1008 bom 662 662 P_____O__PO___ SH151958 -20.28 157.44 -1 -20.40 157.60 1008 -20.38 157.43 TC 15 1007 -20.30 157.40 1 11 63
1958 SP EA 1958-02-24 00:00:00 TS -20.24 157.62 667 627 O_____P__OP___ jtwc_sh SH151958 -20.20 157.60 -1 -20.30 157.74 -20.30 157.60 TC 15 1008 -20.24 157.56 1 9 56
1958 SP EA 03:00:00 TS -19.99 158.00 627 608 P_____P___P___ SH151958 -19.96 157.97 -1 -20.00 158.10 TC -20.02 157.95 1 8 48
1958 SP EA 06:00:00 TS -19.71 158.25 609 592 O_____P___P___ jtwc_sh SH151958 -19.70 158.20 -1 -19.68 158.35 TC -19.75 158.24 1 7 35
1958 SP EA 09:00:00 TS -19.41 158.43 594 586 P_____P___P___ SH151958 -19.43 158.39 -1 -19.34 158.51 TC -19.44 158.42 1 7 25
1958 SP EA 11:00:00 TS -19.19 158.51 588 588 P_____P___O___ SH151958 -19.22 158.47 -1 -19.10 158.58 TC -19.20 158.50 1 7 17
1958 SP EA 12:00:00 TS -19.06 158.54 591 583 O_____P___P___ jtwc_sh SH151958 -19.10 158.50 -1 -18.98 158.61 -19.07 158.53 1 8 8
1958 SP EA 15:00:00 TS -18.65 158.59 597 597 P_____P___P___ SH151958 -18.68 158.56 -1 -18.61 158.65 -18.65 158.57 1 9 4
1958 SP EA 18:00:00 TS -18.21 158.60 613 613 O_____P___P___ jtwc_sh SH151958 -18.20 158.60 -1 -18.24 158.65 -18.20 158.56 1 9 0
1958 SP EA 21:00:00 NR -17.79 158.58 632 632 ______P___P___ SH151958 -1 -17.86 158.62 -17.72 158.53 1 9 356
1958 SP EA 23:00:00 NR -17.50 158.55 1008 bom 648 ______O___O___ SH151958 -1 -17.60 158.60 1008 -17.40 158.50 1 9 356